Time;durP1;ratioP1;P1;durP2;ratioP2;P2;SDS_P1;SDS_P2;PMS_P1;PMS_P2;Temp;Humidity;BMP_temperature;BMP_pressure;BME280_temperature;BME280_humidity;BME280_pressure;Samples;Min_cycle;Max_cycle;Signal;HPM_P1;HPM_P2
2023/10/08 00:01:42;;;;;;;;;;;;;;;;;;6090838;23;20258;-90
2023/10/08 00:04:08;;;;;;;;;;;;;;;;;;6090241;23;20255;-90
2023/10/08 00:06:34;;;;;;;;;;;;;;;;;;6091634;23;20236;-90
2023/10/08 00:09:00;;;;;;;;;;;;;;;;;;6090136;23;19906;-91
2023/10/08 00:11:29;;;;;;;;;;;;;;;;;;6091647;23;19956;-90
2023/10/08 00:13:56;;;;;;;;;;;;;;;;;;6091421;23;19917;-89
2023/10/08 00:16:22;;;;;;;;;;;;;;;;;;6090575;23;19909;-91
2023/10/08 00:18:51;;;;;;;;;;;;;;;;;;6091354;23;19916;-91
2023/10/08 00:21:19;;;;;;;;;;;;;;;;;;6089381;23;20445;-90
2023/10/08 00:24:02;;;;;;;;;;;;;;;;;;6091203;23;19917;-90
2023/10/08 00:26:29;;;;;;;;;;;;;;;;;;6090973;23;19906;-91
2023/10/08 00:28:56;;;;;;;;;;;;;;;;;;6090487;23;19913;-91
2023/10/08 00:31:25;;;;;;;;;;;;;;;;;;6091366;23;19913;-90
2023/10/08 00:33:51;;;;;;;;;;;;;;;;;;6091054;23;20028;-90
2023/10/08 00:36:18;;;;;;;;;;;;;;;;;;6090718;23;20497;-91
2023/10/08 00:38:44;;;;;;;;;;;;;;;;;;6090733;23;20315;-90
2023/10/08 00:41:10;;;;;;;;;;;;;;;;;;6090783;23;20068;-90
2023/10/08 00:43:36;;;;;;;;;;;;;;;;;;6090074;23;19976;-92
2023/10/08 00:46:17;;;;;;;;;;;;;;;;;;6091944;23;20367;-90
2023/10/08 00:48:44;;;;;;;;;;;;;;;;;;6089991;23;20377;-91
2023/10/08 00:53:46;;;;;;;;;;;;;;;;;;6101560;23;19909;-90
2023/10/08 00:56:13;;;;;;;;;;;;;;;;;;6066788;23;19920;-90
2023/10/08 00:58:40;;;;;;;;;;;;;;;;;;6067560;23;20383;-91
2023/10/08 01:01:10;;;;;;;;;;;;;;;;;;6067780;23;20244;-89
2023/10/08 01:03:36;;;;;;;;;;;;;;;;;;6068088;23;19905;-92
2023/10/08 01:06:03;;;;;;;;;;;;;;;;;;6065331;23;19913;-91
2023/10/08 01:08:46;;;;;;;;;;;;;;;;;;6067704;23;19905;-92
2023/10/08 01:11:12;;;;;;;;;;;;;;;;;;6067677;23;19906;-91
2023/10/08 01:13:44;;;;;;;;;;;;;;;;;;6066019;23;20267;-91
2023/10/08 01:16:10;;;;;;;;;;;;;;;;;;6068115;23;19913;-91
2023/10/08 01:18:42;;;;;;;;;;;;;;;;;;6067474;23;19909;-91
2023/10/08 01:21:11;;;;;;;;;;;;;;;;;;6067015;23;19909;-91
2023/10/08 01:23:38;;;;;;;;;;;;;;;;;;6065864;23;20375;-91
2023/10/08 01:26:11;;;;;;;;;;;;;;;;;;6067316;23;20283;-91
2023/10/08 01:28:37;;;;;;;;;;;;;;;;;;6068381;23;19916;-91
2023/10/08 01:31:03;;;;;;;;;;;;;;;;;;6067663;23;19913;-91
2023/10/08 01:33:30;;;;;;;;;;;;;;;;;;6067469;23;19913;-92
2023/10/08 01:36:04;;;;;;;;;;;;;;;;;;6064486;23;19959;-91
2023/10/08 01:38:30;;;;;;;;;;;;;;;;;;6067497;23;19913;-91
2023/10/08 01:40:56;;;;;;;;;;;;;;;;;;6067762;23;19905;-91
2023/10/08 01:43:22;;;;;;;;;;;;;;;;;;6065557;23;20007;-91
2023/10/08 01:45:50;;;;;;;;;;;;;;;;;;6066591;23;19916;-91
2023/10/08 01:48:20;;;;;;;;;;;;;;;;;;6066106;23;19917;-91
2023/10/08 01:50:47;;;;;;;;;;;;;;;;;;6065485;23;19909;-90
2023/10/08 01:53:15;;;;;;;;;;;;;;;;;;6086201;23;20308;-90
2023/10/08 01:55:51;;;;;;;;;;;;;;;;;;6089673;23;19929;-91
2023/10/08 01:58:17;;;;;;;;;;;;;;;;;;6088368;23;19936;-90
2023/10/08 02:00:45;;;;;;;;;;;;;;;;;;6089461;23;19957;-90
2023/10/08 02:03:12;;;;;;;;;;;;;;;;;;6090369;23;19906;-90
2023/10/08 02:05:41;;;;;;;;;;;;;;;;;;6088083;23;19910;-91
2023/10/08 02:08:07;;;;;;;;;;;;;;;;;;6090076;23;20054;-89
2023/10/08 02:10:33;;;;;;;;;;;;;;;;;;6088196;23;19929;-91
2023/10/08 02:13:01;;;;;;;;;;;;;;;;;;6086596;23;19953;-91
2023/10/08 02:15:27;;;;;;;;;;;;;;;;;;6088325;23;19916;-89
2023/10/08 02:17:54;;;;;;;;;;;;;;;;;;6088862;23;20312;-90
2023/10/08 02:20:21;;;;;;;;;;;;;;;;;;6089347;23;19964;-90
2023/10/08 02:22:49;;;;;;;;;;;;;;;;;;6089261;23;19909;-91
2023/10/08 02:25:15;;;;;;;;;;;;;;;;;;6089929;23;19928;-91
2023/10/08 02:27:41;;;;;;;;;;;;;;;;;;6088107;23;19909;-91
2023/10/08 02:30:09;;;;;;;;;;;;;;;;;;6089611;23;20324;-91
2023/10/08 02:32:36;;;;;;;;;;;;;;;;;;6089340;23;20435;-91
2023/10/08 02:35:02;;;;;;;;;;;;;;;;;;6086014;23;19909;-92
2023/10/08 02:37:28;;;;;;;;;;;;;;;;;;6089340;23;19913;-92
2023/10/08 02:39:54;;;;;;;;;;;;;;;;;;6090441;23;19921;-92
2023/10/08 02:42:22;;;;;;;;;;;;;;;;;;6089216;23;19909;-92
2023/10/08 02:44:48;;;;;;;;;;;;;;;;;;6088294;23;19909;-91
2023/10/08 02:47:20;;;;;;;;;;;;;;;;;;6089249;23;19944;-92
2023/10/08 02:49:48;;;;;;;;;;;;;;;;;;6088714;23;19937;-93
2023/10/08 02:52:15;;;;;;;;;;;;;;;;;;6089579;23;20356;-91
2023/10/08 02:54:41;;;;;;;;;;;;;;;;;;6088708;23;19909;-91
2023/10/08 02:57:14;;;;;;;;;;;;;;;;;;6089174;23;20497;-92
2023/10/08 02:59:44;;;;;;;;;;;;;;;;;;6087988;23;19909;-91
2023/10/08 03:02:21;;;;;;;;;;;;;;;;;;6089665;23;19909;-91
2023/10/08 03:04:47;;;;;;;;;;;;;;;;;;6089682;23;19910;-92
2023/10/08 03:07:21;;;;;;;;;;;;;;;;;;6088965;23;19905;-91
2023/10/08 03:09:49;;;;;;;;;;;;;;;;;;6088557;23;20350;-91
2023/10/08 03:12:15;;;;;;;;;;;;;;;;;;6088672;23;19913;-92
2023/10/08 03:17:26;;;;;;;;;;;;;;;;;;6090613;23;19917;-93
2023/10/08 03:19:52;;;;;;;;;;;;;;;;;;6088428;23;19909;-92
2023/10/08 03:22:19;;;;;;;;;;;;;;;;;;6088887;23;19917;-91
2023/10/08 03:24:48;;;;;;;;;;;;;;;;;;6089138;23;20530;-92
2023/10/08 03:27:20;;;;;;;;;;;;;;;;;;6089826;23;19912;-91
2023/10/08 03:29:46;;;;;;;;;;;;;;;;;;6089859;23;20001;-92
2023/10/08 03:32:15;;;;;;;;;;;;;;;;;;6087343;23;19941;-92
2023/10/08 03:34:43;;;;;;;;;;;;;;;;;;6088446;23;19972;-93
2023/10/08 03:37:09;;;;;;;;;;;;;;;;;;6088199;23;20145;-92
2023/10/08 03:39:51;;;;;;;;;;;;;;;;;;6088350;23;19987;-91
2023/10/08 03:42:20;;;;;;;;;;;;;;;;;;6088163;23;19932;-91
2023/10/08 03:44:50;;;;;;;;;;;;;;;;;;6088256;23;20315;-91
2023/10/08 03:47:18;;;;;;;;;;;;;;;;;;6088970;23;19909;-91
2023/10/08 03:49:45;;;;;;;;;;;;;;;;;;6088080;23;19968;-92
2023/10/08 03:52:12;;;;;;;;;;;;;;;;;;6089578;23;19921;-91
2023/10/08 03:54:43;;;;;;;;;;;;;;;;;;6088040;23;19906;-91
2023/10/08 03:57:17;;;;;;;;;;;;;;;;;;6088190;23;19914;-91
2023/10/08 03:59:48;;;;;;;;;;;;;;;;;;6087386;23;19961;-91
2023/10/08 04:02:14;;;;;;;;;;;;;;;;;;6088616;23;19954;-92
2023/10/08 04:04:56;;;;;;;;;;;;;;;;;;6088679;23;19988;-91
2023/10/08 04:07:36;;;;;;;;;;;;;;;;;;6088822;23;19909;-91
2023/10/08 04:12:34;;;;;;;;;;;;;;;;;;6100006;23;19909;-91
2023/10/08 04:15:00;;;;;;;;;;;;;;;;;;6088372;23;19937;-91
2023/10/08 04:17:26;;;;;;;;;;;;;;;;;;6088016;23;19920;-91
2023/10/08 04:19:52;;;;;;;;;;;;;;;;;;6087685;23;19953;-92
2023/10/08 04:22:18;;;;;;;;;;;;;;;;;;6087011;23;19938;-91
2023/10/08 04:24:45;;;;;;;;;;;;;;;;;;6088548;23;20332;-91
2023/10/08 04:27:11;;;;;;;;;;;;;;;;;;6087399;23;19906;-92
2023/10/08 04:29:37;;;;;;;;;;;;;;;;;;6088709;23;20059;-91
2023/10/08 04:32:21;;;;;;;;;;;;;;;;;;6089546;23;19913;-91
2023/10/08 04:34:47;;;;;;;;;;;;;;;;;;6089754;23;19954;-91
2023/10/08 04:37:13;;;;;;;;;;;;;;;;;;6089609;23;19909;-89
2023/10/08 04:39:40;;;;;;;;;;;;;;;;;;6090015;23;19912;-91
2023/10/08 04:42:14;;;;;;;;;;;;;;;;;;6089444;23;19909;-92
2023/10/08 04:44:43;;;;;;;;;;;;;;;;;;6089755;23;19909;-91
2023/10/08 04:47:31;;;;;;;;;;;;;;;;;;6089868;23;20005;-92
2023/10/08 04:49:57;;;;;;;;;;;;;;;;;;6091355;23;19997;-92
2023/10/08 04:52:25;;;;;;;;;;;;;;;;;;6090424;23;20371;-92
2023/10/08 04:54:51;;;;;;;;;;;;;;;;;;6090667;23;19913;-93
2023/10/08 04:57:17;;;;;;;;;;;;;;;;;;6089042;23;20013;-92
2023/10/08 04:59:49;;;;;;;;;;;;;;;;;;6090999;23;19932;-91
2023/10/08 05:02:40;;;;;;;;;;;;;;;;;;6090579;23;19913;-92
2023/10/08 05:05:38;;;;;;;;;;;;;;;;;;6089674;23;19953;-92
2023/10/08 05:15:41;;;;;;;;;;;;;;;;;;6100411;23;20139;-92
2023/10/08 05:26:08;;;;;;;;;;;;;;;;;;6102002;23;19909;-92
2023/10/08 05:34:22;;;;;;;;;;;;;;;;;;6100473;23;19916;-91
2023/10/08 05:39:40;;;;;;;;;;;;;;;;;;6100934;23;19925;-93
2023/10/08 05:42:31;;;;;;;;;;;;;;;;;;6089075;23;19909;-92
2023/10/08 05:53:15;;;;;;;;;;;;;;;;;;6093011;23;19925;-91
2023/10/08 05:55:34;;;;;;;;;;;;;;;;;;6089648;23;19908;-92
2023/10/08 06:06:22;;;;;;;;;;;;;;;;;;6090570;23;19916;-92
2023/10/08 06:09:21;;;;;;;;;;;;;;;;;;6066623;23;19932;-93
2023/10/08 06:12:06;;;;;;;;;;;;;;;;;;6066165;23;20309;-92
2023/10/08 06:17:33;;;;;;;;;;;;;;;;;;6090597;23;20040;-92
2023/10/08 06:20:16;;;;;;;;;;;;;;;;;;6065129;23;19940;-91
2023/10/08 06:22:42;;;;;;;;;;;;;;;;;;6064393;23;19986;-91
2023/10/08 06:25:22;;;;;;;;;;;;;;;;;;6064999;23;20387;-91
2023/10/08 06:27:53;;;;;;;;;;;;;;;;;;6064467;23;20017;-92
2023/10/08 06:30:19;;;;;;;;;;;;;;;;;;6065036;23;19916;-93
2023/10/08 06:32:45;;;;;;;;;;;;;;;;;;6066509;23;19909;-92
2023/10/08 06:35:25;;;;;;;;;;;;;;;;;;6066473;23;19911;-92
2023/10/08 06:37:54;;;;;;;;;;;;;;;;;;6067840;23;19917;-93
2023/10/08 06:43:21;;;;;;;;;;;;;;;;;;6100334;23;19953;-90
2023/10/08 06:45:47;;;;;;;;;;;;;;;;;;6064935;23;19909;-91
2023/10/08 06:48:18;;;;;;;;;;;;;;;;;;6065980;23;20036;-90
2023/10/08 06:50:44;;;;;;;;;;;;;;;;;;6063588;23;19909;-90
2023/10/08 06:53:14;;;;;;;;;;;;;;;;;;6078639;23;19921;-90
2023/10/08 06:55:40;;;;;;;;;;;;;;;;;;6088443;23;20354;-90
2023/10/08 06:58:08;;;;;;;;;;;;;;;;;;6088404;23;20331;-91
2023/10/08 07:00:40;;;;;;;;;;;;;;;;;;6090598;23;19909;-91
2023/10/08 07:03:07;;;;;;;;;;;;;;;;;;6089902;23;19937;-91
2023/10/08 07:05:40;;;;;;;;;;;;;;;;;;6089699;23;19905;-91
2023/10/08 07:08:06;;;;;;;;;;;;;;;;;;6089358;23;19913;-91
2023/10/08 07:10:34;;;;;;;;;;;;;;;;;;6088996;23;20000;-92
2023/10/08 07:13:00;;;;;;;;;;;;;;;;;;6088056;23;19909;-91
2023/10/08 07:15:26;;;;;;;;;;;;;;;;;;6089118;23;19920;-93
2023/10/08 07:17:52;;;;;;;;;;;;;;;;;;6089822;23;19940;-92
2023/10/08 07:20:22;;;;;;;;;;;;;;;;;;6088421;23;20481;-93
2023/10/08 07:22:54;;;;;;;;;;;;;;;;;;6088920;23;19943;-91
2023/10/08 07:25:21;;;;;;;;;;;;;;;;;;6088829;23;20327;-91
2023/10/08 07:27:47;;;;;;;;;;;;;;;;;;6087572;23;19909;-91
2023/10/08 07:30:18;;;;;;;;;;;;;;;;;;6091149;23;19905;-92
2023/10/08 07:32:44;;;;;;;;;;;;;;;;;;6089031;23;19909;-91
2023/10/08 07:35:25;;;;;;;;;;;;;;;;;;6089284;23;19905;-91
2023/10/08 07:37:57;;;;;;;;;;;;;;;;;;6088300;23;19909;-91
2023/10/08 07:40:29;;;;;;;;;;;;;;;;;;6086454;23;20092;-92
2023/10/08 07:42:56;;;;;;;;;;;;;;;;;;6087829;23;20319;-92
2023/10/08 07:45:21;;;;;;;;;;;;;;;;;;6089324;23;19916;-91
2023/10/08 07:47:47;;;;;;;;;;;;;;;;;;6088977;23;19909;-92
2023/10/08 07:50:15;;;;;;;;;;;;;;;;;;6090184;23;20276;-89
2023/10/08 07:52:44;;;;;;;;;;;;;;;;;;6089677;23;19965;-89
2023/10/08 07:55:10;;;;;;;;;;;;;;;;;;6089023;23;19974;-90
2023/10/08 07:57:36;;;;;;;;;;;;;;;;;;6089435;23;19944;-91
2023/10/08 08:00:18;;;;;;;;;;;;;;;;;;6094184;23;19940;-91
2023/10/08 08:02:44;;;;;;;;;;;;;;;;;;6089408;23;19942;-90
2023/10/08 08:05:16;;;;;;;;;;;;;;;;;;6093344;23;19920;-90
2023/10/08 08:07:43;;;;;;;;;;;;;;;;;;6093662;23;19905;-89
2023/10/08 08:10:10;;;;;;;;;;;;;;;;;;6092810;23;19910;-89
2023/10/08 08:12:37;;;;;;;;;;;;;;;;;;6092622;23;19912;-89
2023/10/08 08:15:14;;;;;;;;;;;;;;;;;;6094096;23;19921;-90
2023/10/08 08:17:41;;;;;;;;;;;;;;;;;;6094529;23;19913;-91
2023/10/08 08:20:17;;;;;;;;;;;;;;;;;;6093440;23;19909;-90
2023/10/08 08:22:49;;;;;;;;;;;;;;;;;;6095034;23;20230;-90
2023/10/08 08:25:15;;;;;;;;;;;;;;;;;;6093634;23;20352;-90
2023/10/08 08:27:43;;;;;;;;;;;;;;;;;;6096782;23;19912;-90
2023/10/08 08:30:10;;;;;;;;;;;;;;;;;;6097172;23;19905;-90
2023/10/08 08:32:39;;;;;;;;;;;;;;;;;;6095045;23;20417;-91
2023/10/08 08:35:07;;;;;;;;;;;;;;;;;;6092868;23;19935;-91
2023/10/08 08:37:35;;;;;;;;;;;;;;;;;;6094534;23;19913;-90
2023/10/08 08:40:01;;;;;;;;;;;;;;;;;;6094228;23;19909;-90
2023/10/08 08:42:27;;;;;;;;;;;;;;;;;;6098217;23;19933;-91
2023/10/08 08:44:53;;;;;;;;;;;;;;;;;;6092122;23;19936;-91
2023/10/08 08:47:19;;;;;;;;;;;;;;;;;;6090624;23;19909;-91
2023/10/08 08:50:00;;;;;;;;;;;;;;;;;;6090767;23;19916;-90
2023/10/08 08:52:26;;;;;;;;;;;;;;;;;;6091895;23;19913;-91
2023/10/08 08:54:58;;;;;;;;;;;;;;;;;;6066749;23;19906;-91
2023/10/08 08:57:24;;;;;;;;;;;;;;;;;;6066759;23;19991;-90
2023/10/08 08:59:50;;;;;;;;;;;;;;;;;;6067599;23;19932;-90
2023/10/08 09:02:18;;;;;;;;;;;;;;;;;;6075882;23;19968;-91
2023/10/08 09:04:45;;;;;;;;;;;;;;;;;;6072991;23;19913;-91
2023/10/08 09:07:12;;;;;;;;;;;;;;;;;;6073867;23;19906;-91
2023/10/08 09:09:39;;;;;;;;;;;;;;;;;;6069176;23;20288;-90
2023/10/08 09:12:05;;;;;;;;;;;;;;;;;;6071400;23;19959;-90
2023/10/08 09:14:41;;;;;;;;;;;;;;;;;;6068930;23;19905;-91
2023/10/08 09:17:07;;;;;;;;;;;;;;;;;;6071933;23;19916;-91
2023/10/08 09:19:33;;;;;;;;;;;;;;;;;;6066539;23;20316;-90
2023/10/08 09:21:59;;;;;;;;;;;;;;;;;;6067027;23;19948;-89
2023/10/08 09:24:25;;;;;;;;;;;;;;;;;;6066029;23;19924;-91
2023/10/08 09:26:51;;;;;;;;;;;;;;;;;;6067227;23;19909;-89
2023/10/08 09:29:17;;;;;;;;;;;;;;;;;;6072696;23;19909;-89
2023/10/08 09:31:48;;;;;;;;;;;;;;;;;;6068818;23;19905;-89
2023/10/08 09:34:14;;;;;;;;;;;;;;;;;;6066077;23;19988;-88
2023/10/08 09:36:42;;;;;;;;;;;;;;;;;;6088459;23;20012;-88
2023/10/08 09:39:12;;;;;;;;;;;;;;;;;;6089802;23;19963;-87
2023/10/08 09:41:38;;;;;;;;;;;;;;;;;;6065376;23;19909;-87
2023/10/08 09:44:04;;;;;;;;;;;;;;;;;;6063837;23;19992;-89
2023/10/08 09:46:35;;;;;;;;;;;;;;;;;;6064729;23;19909;-89
2023/10/08 09:49:01;;;;;;;;;;;;;;;;;;6067886;23;20256;-91
2023/10/08 09:51:27;;;;;;;;;;;;;;;;;;6063435;23;19982;-87
2023/10/08 09:53:54;;;;;;;;;;;;;;;;;;6082148;23;19924;-87
2023/10/08 09:56:19;;;;;;;;;;;;;;;;;;6088339;23;20223;-86
2023/10/08 09:58:53;;;;;;;;;;;;;;;;;;6088293;23;20420;-86
2023/10/08 10:01:19;;;;;;;;;;;;;;;;;;6087628;23;19913;-87
2023/10/08 10:03:49;;;;;;;;;;;;;;;;;;6088704;23;19984;-87
2023/10/08 10:06:15;;;;;;;;;;;;;;;;;;6086808;23;19905;-87
2023/10/08 10:08:42;;;;;;;;;;;;;;;;;;6088911;23;19924;-87
2023/10/08 10:11:08;;;;;;;;;;;;;;;;;;6086304;23;19988;-85
2023/10/08 10:13:34;;;;;;;;;;;;;;;;;;6089362;23;19917;-87
2023/10/08 10:16:01;;;;;;;;;;;;;;;;;;6088075;23;19909;-87
2023/10/08 10:18:28;;;;;;;;;;;;;;;;;;6088279;23;19909;-88
2023/10/08 10:20:54;;;;;;;;;;;;;;;;;;6086444;23;19909;-87
2023/10/08 10:23:21;;;;;;;;;;;;;;;;;;6092206;23;19909;-87
2023/10/08 10:25:48;;;;;;;;;;;;;;;;;;6089507;23;19956;-87
2023/10/08 10:28:14;;;;;;;;;;;;;;;;;;6090095;23;19913;-90
2023/10/08 10:30:47;;;;;;;;;;;;;;;;;;6094075;23;19909;-91
2023/10/08 10:33:13;;;;;;;;;;;;;;;;;;6093020;23;19909;-89
2023/10/08 10:35:41;;;;;;;;;;;;;;;;;;6092343;23;19916;-89
2023/10/08 10:38:07;;;;;;;;;;;;;;;;;;6092726;23;20371;-90
2023/10/08 10:40:40;;;;;;;;;;;;;;;;;;6093332;23;19905;-90
2023/10/08 10:43:09;;;;;;;;;;;;;;;;;;6093853;23;19956;-90
2023/10/08 10:45:36;;;;;;;;;;;;;;;;;;6093132;23;19913;-91
2023/10/08 10:48:12;;;;;;;;;;;;;;;;;;6093553;23;20424;-92
2023/10/08 10:50:47;;;;;;;;;;;;;;;;;;6091498;23;19916;-90
2023/10/08 10:53:14;;;;;;;;;;;;;;;;;;6093780;23;19996;-91
2023/10/08 10:55:58;;;;;;;;;;;;;;;;;;6092488;23;20371;-91
2023/10/08 10:58:24;;;;;;;;;;;;;;;;;;6092662;23;19913;-90
2023/10/08 11:01:44;;;;;;;;;;;;;;;;;;6093349;23;20411;-90
2023/10/08 11:03:39;;;;;;;;;;;;;;;;;;6083273;23;19920;-90
2023/10/08 11:06:06;;;;;;;;;;;;;;;;;;6091893;23;19932;-91
2023/10/08 11:08:34;;;;;;;;;;;;;;;;;;6091802;23;20419;-91
2023/10/08 11:11:05;;;;;;;;;;;;;;;;;;6092466;23;20402;-91
2023/10/08 11:13:37;;;;;;;;;;;;;;;;;;6091031;23;19917;-90
2023/10/08 11:16:03;;;;;;;;;;;;;;;;;;6091369;23;19912;-89
2023/10/08 11:18:29;;;;;;;;;;;;;;;;;;6091082;23;20292;-89
2023/10/08 11:21:13;;;;;;;;;;;;;;;;;;6091371;23;19905;-91
2023/10/08 11:23:41;;;;;;;;;;;;;;;;;;6092905;23;19919;-90
2023/10/08 11:26:07;;;;;;;;;;;;;;;;;;6091213;23;20320;-91
2023/10/08 11:28:41;;;;;;;;;;;;;;;;;;6091570;23;19916;-89
2023/10/08 11:31:08;;;;;;;;;;;;;;;;;;6093203;23;19980;-89
2023/10/08 11:33:35;;;;;;;;;;;;;;;;;;6093594;23;19909;-89
2023/10/08 11:36:01;;;;;;;;;;;;;;;;;;6093721;23;19925;-88
2023/10/08 11:38:38;;;;;;;;;;;;;;;;;;6097053;23;19909;-89
2023/10/08 11:41:05;;;;;;;;;;;;;;;;;;6092431;23;20359;-89
2023/10/08 11:43:35;;;;;;;;;;;;;;;;;;6093003;23;20375;-91
2023/10/08 11:46:04;;;;;;;;;;;;;;;;;;6093816;23;19921;-90
2023/10/08 11:48:35;;;;;;;;;;;;;;;;;;6093199;23;20427;-89
2023/10/08 11:51:05;;;;;;;;;;;;;;;;;;6092481;23;19988;-90
2023/10/08 11:53:31;;;;;;;;;;;;;;;;;;6091514;23;19991;-91
2023/10/08 11:55:57;;;;;;;;;;;;;;;;;;6089932;23;20267;-91
2023/10/08 11:58:37;;;;;;;;;;;;;;;;;;6091665;23;19938;-90
2023/10/08 12:01:03;;;;;;;;;;;;;;;;;;6090063;23;20344;-90
2023/10/08 12:03:29;;;;;;;;;;;;;;;;;;6089821;23;19909;-91
2023/10/08 12:06:01;;;;;;;;;;;;;;;;;;6091449;23;19912;-91
2023/10/08 12:08:27;;;;;;;;;;;;;;;;;;6090511;23;19905;-90
2023/10/08 12:10:54;;;;;;;;;;;;;;;;;;6091954;23;19940;-90
2023/10/08 12:13:29;;;;;;;;;;;;;;;;;;6089388;23;19909;-90
2023/10/08 12:16:12;;;;;;;;;;;;;;;;;;6091216;23;19940;-90
2023/10/08 12:18:57;;;;;;;;;;;;;;;;;;6092319;23;19916;-91
2023/10/08 12:21:24;;;;;;;;;;;;;;;;;;6089603;23;19929;-90
2023/10/08 12:23:51;;;;;;;;;;;;;;;;;;6091208;23;19916;-91
2023/10/08 12:26:18;;;;;;;;;;;;;;;;;;6091494;23;19910;-90
2023/10/08 12:28:48;;;;;;;;;;;;;;;;;;6091892;23;20350;-90
2023/10/08 12:31:15;;;;;;;;;;;;;;;;;;6093144;23;19906;-90
2023/10/08 12:33:43;;;;;;;;;;;;;;;;;;6093673;23;19916;-90
2023/10/08 12:36:12;;;;;;;;;;;;;;;;;;6091512;23;19913;-90
2023/10/08 12:38:41;;;;;;;;;;;;;;;;;;6091718;23;19905;-90
2023/10/08 12:41:13;;;;;;;;;;;;;;;;;;6091290;23;19992;-91
2023/10/08 12:43:42;;;;;;;;;;;;;;;;;;6092295;23;19912;-91
2023/10/08 12:46:10;;;;;;;;;;;;;;;;;;6095271;23;20232;-90
2023/10/08 12:48:36;;;;;;;;;;;;;;;;;;6096999;23;19968;-90
2023/10/08 12:51:05;;;;;;;;;;;;;;;;;;6099802;23;19948;-89
2023/10/08 12:53:36;;;;;;;;;;;;;;;;;;6100456;23;19921;-89
2023/10/08 12:56:05;;;;;;;;;;;;;;;;;;6099066;23;19916;-90
2023/10/08 12:58:34;;;;;;;;;;;;;;;;;;6096985;23;19972;-92
2023/10/08 13:01:03;;;;;;;;;;;;;;;;;;6096032;23;20395;-91
2023/10/08 13:03:32;;;;;;;;;;;;;;;;;;6090633;23;20340;-90
2023/10/08 13:06:05;;;;;;;;;;;;;;;;;;6091101;23;19916;-90
2023/10/08 13:08:31;;;;;;;;;;;;;;;;;;6094364;23;20339;-88
2023/10/08 13:11:00;;;;;;;;;;;;;;;;;;6096443;23;19944;-88
2023/10/08 13:13:26;;;;;;;;;;;;;;;;;;6091127;23;20332;-89
2023/10/08 13:15:56;;;;;;;;;;;;;;;;;;6091598;23;19915;-88
2023/10/08 13:18:22;;;;;;;;;;;;;;;;;;6094567;23;19990;-88
2023/10/08 13:20:48;;;;;;;;;;;;;;;;;;6090788;23;20327;-89
2023/10/08 13:23:14;;;;;;;;;;;;;;;;;;6093436;23;19980;-88
2023/10/08 13:25:40;;;;;;;;;;;;;;;;;;6091616;23;19915;-88
2023/10/08 13:28:09;;;;;;;;;;;;;;;;;;6094535;23;19986;-89
2023/10/08 13:30:35;;;;;;;;;;;;;;;;;;6095001;23;19909;-89
2023/10/08 13:33:01;;;;;;;;;;;;;;;;;;6099563;23;20079;-88
2023/10/08 13:35:27;;;;;;;;;;;;;;;;;;6094383;23;20335;-89
2023/10/08 13:37:55;;;;;;;;;;;;;;;;;;6094346;23;19969;-89
2023/10/08 13:40:32;;;;;;;;;;;;;;;;;;6094895;23;19940;-90
2023/10/08 13:42:58;;;;;;;;;;;;;;;;;;6095086;23;19920;-87
2023/10/08 13:45:29;;;;;;;;;;;;;;;;;;6094819;23;19952;-88
2023/10/08 13:47:56;;;;;;;;;;;;;;;;;;6090910;23;19973;-89
2023/10/08 13:50:22;;;;;;;;;;;;;;;;;;6096668;23;19906;-90
2023/10/08 13:52:48;;;;;;;;;;;;;;;;;;6097433;23;20210;-90
2023/10/08 13:55:16;;;;;;;;;;;;;;;;;;6101757;23;19921;-88
2023/10/08 13:57:43;;;;;;;;;;;;;;;;;;6091849;23;19909;-89
2023/10/08 14:00:15;;;;;;;;;;;;;;;;;;6091543;23;19920;-89
2023/10/08 14:02:42;;;;;;;;;;;;;;;;;;6090472;23;19909;-90
2023/10/08 14:05:08;;;;;;;;;;;;;;;;;;6092463;23;19985;-89
2023/10/08 14:07:35;;;;;;;;;;;;;;;;;;6090051;23;19943;-90
2023/10/08 14:10:05;;;;;;;;;;;;;;;;;;6092946;23;19909;-92
2023/10/08 14:12:34;;;;;;;;;;;;;;;;;;6090466;23;20391;-87
2023/10/08 14:15:05;;;;;;;;;;;;;;;;;;6088001;23;19977;-87
2023/10/08 14:17:44;;;;;;;;;;;;;;;;;;6089071;23;19913;-88
2023/10/08 14:20:13;;;;;;;;;;;;;;;;;;6091313;23;19916;-88
2023/10/08 14:22:40;;;;;;;;;;;;;;;;;;6099829;23;19919;-88
2023/10/08 14:25:11;;;;;;;;;;;;;;;;;;6099137;23;19906;-88
2023/10/08 14:27:43;;;;;;;;;;;;;;;;;;6095731;23;19936;-89
2023/10/08 14:30:20;;;;;;;;;;;;;;;;;;6091715;23;19932;-88
2023/10/08 14:32:46;;;;;;;;;;;;;;;;;;6090360;23;19973;-88
2023/10/08 14:43:31;;;;;;;;;;;;;;;;;;6090431;23;19941;-89
2023/10/08 14:45:59;;;;;;;;;;;;;;;;;;6089216;23;19964;-89
2023/10/08 14:48:29;;;;;;;;;;;;;;;;;;6089269;23;20424;-90
2023/10/08 14:50:56;;;;;;;;;;;;;;;;;;6088565;23;20032;-89
2023/10/08 14:53:24;;;;;;;;;;;;;;;;;;6089978;23;19906;-90
2023/10/08 14:55:51;;;;;;;;;;;;;;;;;;6064216;23;20438;-89
2023/10/08 14:58:18;;;;;;;;;;;;;;;;;;6064927;23;20337;-89
2023/10/08 15:00:45;;;;;;;;;;;;;;;;;;6066882;23;20208;-89
2023/10/08 15:03:12;;;;;;;;;;;;;;;;;;6065085;23;19913;-89
2023/10/08 15:05:40;;;;;;;;;;;;;;;;;;6063826;23;20410;-89
2023/10/08 15:08:09;;;;;;;;;;;;;;;;;;6064354;23;20036;-89
2023/10/08 15:10:35;;;;;;;;;;;;;;;;;;6065191;23;19909;-90
2023/10/08 15:13:01;;;;;;;;;;;;;;;;;;6063721;23;19909;-89
2023/10/08 15:15:34;;;;;;;;;;;;;;;;;;6066996;23;20362;-90
2023/10/08 15:18:02;;;;;;;;;;;;;;;;;;6064006;23;19909;-89
2023/10/08 15:20:31;;;;;;;;;;;;;;;;;;6065173;23;19944;-89
2023/10/08 15:23:06;;;;;;;;;;;;;;;;;;6068110;23;20435;-89
2023/10/08 15:25:32;;;;;;;;;;;;;;;;;;6066754;23;20097;-89
2023/10/08 15:28:04;;;;;;;;;;;;;;;;;;6069126;23;19913;-89
2023/10/08 15:30:32;;;;;;;;;;;;;;;;;;6068128;23;19964;-90
2023/10/08 15:32:58;;;;;;;;;;;;;;;;;;6071040;23;19917;-90
2023/10/08 15:35:24;;;;;;;;;;;;;;;;;;6070406;23;19984;-89
2023/10/08 15:37:50;;;;;;;;;;;;;;;;;;6091062;23;19916;-89
2023/10/08 15:40:20;;;;;;;;;;;;;;;;;;6071807;23;19933;-88
2023/10/08 15:42:46;;;;;;;;;;;;;;;;;;6103615;23;19913;-90
2023/10/08 15:45:12;;;;;;;;;;;;;;;;;;6078906;23;20089;-89
2023/10/08 15:47:38;;;;;;;;;;;;;;;;;;6071689;23;20281;-88
2023/10/08 15:50:04;;;;;;;;;;;;;;;;;;6066527;23;19952;-89
2023/10/08 15:52:31;;;;;;;;;;;;;;;;;;6067012;23;19913;-89
2023/10/08 15:54:57;;;;;;;;;;;;;;;;;;6080245;23;19925;-89
2023/10/08 15:57:23;;;;;;;;;;;;;;;;;;6087862;23;20277;-89
2023/10/08 15:59:56;;;;;;;;;;;;;;;;;;6088866;23;19910;-89
2023/10/08 16:02:22;;;;;;;;;;;;;;;;;;6087343;23;19919;-89
2023/10/08 16:04:48;;;;;;;;;;;;;;;;;;6086118;23;20394;-89
2023/10/08 16:07:14;;;;;;;;;;;;;;;;;;6088598;23;19909;-89
2023/10/08 16:09:41;;;;;;;;;;;;;;;;;;6090371;23;19909;-88
2023/10/08 16:12:07;;;;;;;;;;;;;;;;;;6092981;23;19936;-88
2023/10/08 16:14:32;;;;;;;;;;;;;;;;;;6087318;23;19909;-88
2023/10/08 16:16:58;;;;;;;;;;;;;;;;;;6096808;23;19929;-88
2023/10/08 16:19:28;;;;;;;;;;;;;;;;;;6101042;23;20395;-87
2023/10/08 16:21:54;;;;;;;;;;;;;;;;;;6098909;23;19929;-87
2023/10/08 16:24:23;;;;;;;;;;;;;;;;;;6090636;23;19910;-88
2023/10/08 16:26:49;;;;;;;;;;;;;;;;;;6091853;23;19909;-88
2023/10/08 16:29:15;;;;;;;;;;;;;;;;;;6091436;23;19912;-87
2023/10/08 16:31:41;;;;;;;;;;;;;;;;;;6096497;23;19909;-88
2023/10/08 16:34:08;;;;;;;;;;;;;;;;;;6094390;23;19955;-88
2023/10/08 16:36:35;;;;;;;;;;;;;;;;;;6092380;23;19953;-88
2023/10/08 16:39:01;;;;;;;;;;;;;;;;;;6096653;23;19916;-88
2023/10/08 16:41:27;;;;;;;;;;;;;;;;;;6096788;23;19996;-90
2023/10/08 16:43:53;;;;;;;;;;;;;;;;;;6090127;23;19909;-89
2023/10/08 16:46:19;;;;;;;;;;;;;;;;;;6090704;23;19988;-89
2023/10/08 16:48:46;;;;;;;;;;;;;;;;;;6089450;23;19940;-89
2023/10/08 16:51:13;;;;;;;;;;;;;;;;;;6088516;23;19913;-89
2023/10/08 16:53:39;;;;;;;;;;;;;;;;;;6090326;23;19912;-89
2023/10/08 16:56:06;;;;;;;;;;;;;;;;;;6089979;23;20356;-89
2023/10/08 16:58:32;;;;;;;;;;;;;;;;;;6065283;23;20387;-89
2023/10/08 17:00:58;;;;;;;;;;;;;;;;;;6064577;23;19910;-90
2023/10/08 17:03:24;;;;;;;;;;;;;;;;;;6064471;23;19909;-89
2023/10/08 17:05:50;;;;;;;;;;;;;;;;;;6065237;23;20290;-89
2023/10/08 17:08:17;;;;;;;;;;;;;;;;;;6065737;23;19906;-89
2023/10/08 17:10:43;;;;;;;;;;;;;;;;;;6065576;23;19960;-89
2023/10/08 17:13:10;;;;;;;;;;;;;;;;;;6064575;23;20293;-88
2023/10/08 17:15:36;;;;;;;;;;;;;;;;;;6067117;23;19912;-89
2023/10/08 17:18:02;;;;;;;;;;;;;;;;;;6064699;23;19976;-88
2023/10/08 17:20:28;;;;;;;;;;;;;;;;;;6063067;23;19909;-87
2023/10/08 17:22:54;;;;;;;;;;;;;;;;;;6062466;23;19940;-87
2023/10/08 17:25:20;;;;;;;;;;;;;;;;;;6065830;23;19909;-87
2023/10/08 17:27:46;;;;;;;;;;;;;;;;;;6065160;23;19905;-88
2023/10/08 17:30:18;;;;;;;;;;;;;;;;;;6065560;23;20598;-89
2023/10/08 17:32:44;;;;;;;;;;;;;;;;;;6065079;23;19916;-89
2023/10/08 17:35:10;;;;;;;;;;;;;;;;;;6064587;23;19910;-89
2023/10/08 17:37:37;;;;;;;;;;;;;;;;;;6064581;23;19937;-91
2023/10/08 17:40:03;;;;;;;;;;;;;;;;;;6065299;23;20387;-90
2023/10/08 17:42:29;;;;;;;;;;;;;;;;;;6064811;23;19906;-90
2023/10/08 17:44:55;;;;;;;;;;;;;;;;;;6064665;23;19913;-89
2023/10/08 17:47:21;;;;;;;;;;;;;;;;;;6064588;23;19920;-89
2023/10/08 17:49:47;;;;;;;;;;;;;;;;;;6063735;23;19909;-89
2023/10/08 17:52:13;;;;;;;;;;;;;;;;;;6065553;23;19933;-89
2023/10/08 17:54:42;;;;;;;;;;;;;;;;;;6076663;23;20335;-90
2023/10/08 17:57:13;;;;;;;;;;;;;;;;;;6091455;23;19917;-89
2023/10/08 17:59:39;;;;;;;;;;;;;;;;;;6091570;23;19914;-89